Weather at Compaq Marlboro Heliport

Public forecast

Using degrees Fahrenheit for public forecast. Weather courtesy of forecast.io.

Closest aviation weather report (METAR) to Compaq Marlboro Heliport

Closest report is Worcester Regional Airport, 13.8 nm (25.5 km) WSW. Retrieved 2020/09/29 12:54 UTC (30 minutes ago):

KORH 291254Z 22009KT 10SM FEW008 19/16 A2997 RMK AO2 SLP146 T01890156

Closest aviation forecast (TAF) to Compaq Marlboro Heliport

Closest forecast is Worcester Regional Airport, 13.8 nm (25.5 km) WSW. Retrieved 2020/09/29 12:24 UTC (60 minutes ago):

TAF KORH 291122Z 2912/3012 20006KT P6SM OVC006 FM291300 20006KT P6SM BKN008 FM291400 20009KT P6SM BKN015 FM291600 19008KT P6SM BKN030 FM292300 18007KT P6SM VCSH BKN015 FM300300 17007KT 3SM BR VCSH OVC008